createdAt,value
2022-12-14T00:03:04.758Z,2.60
2022-12-14T00:13:07.637Z,2.72
2022-12-14T00:23:09.099Z,2.70
2022-12-14T00:33:10.554Z,2.80
2022-12-14T00:43:11.957Z,2.65
2022-12-14T00:53:13.641Z,2.55
2022-12-14T01:03:15.696Z,2.70
2022-12-14T01:13:17.744Z,2.80
2022-12-14T01:23:19.201Z,2.42
2022-12-14T01:33:20.702Z,2.78
2022-12-14T01:43:22.135Z,2.70
2022-12-14T01:53:24.251Z,2.28
2022-12-14T02:03:29.814Z,2.72
2022-12-14T02:13:38.415Z,2.60
2022-12-14T02:23:49.227Z,2.58
2022-12-14T02:33:58.651Z,3.00
2022-12-14T02:44:44.442Z,2.65
2022-12-14T02:54:59.016Z,2.63
2022-12-14T03:05:00.424Z,2.72
2022-12-14T03:15:03.377Z,2.45
2022-12-14T03:25:13.676Z,2.63
2022-12-14T03:35:25.378Z,2.42
2022-12-14T03:45:30.574Z,2.50
2022-12-14T03:55:39.085Z,2.65
2022-12-14T04:05:49.152Z,2.47
2022-12-14T04:16:13.219Z,2.50
2022-12-14T04:26:16.901Z,2.88
2022-12-14T04:36:38.657Z,2.75
2022-12-14T04:46:41.125Z,2.60
2022-12-14T04:56:53.488Z,2.08
2022-12-14T05:07:20.160Z,2.30
2022-12-14T05:17:21.646Z,2.20
2022-12-14T05:27:23.285Z,2.25
2022-12-14T05:37:24.851Z,2.38
2022-12-14T05:47:27.125Z,2.17
2022-12-14T05:57:28.665Z,2.15
2022-12-14T06:07:30.116Z,2.10
2022-12-14T06:17:31.603Z,2.00
2022-12-14T06:27:33.173Z,2.00
2022-12-14T06:37:34.674Z,1.90
2022-12-14T06:47:36.311Z,1.65
2022-12-14T06:57:37.705Z,2.05
2022-12-14T07:07:39.749Z,2.03
2022-12-14T07:17:41.204Z,1.90
2022-12-14T07:27:42.725Z,1.50
2022-12-14T07:37:44.165Z,1.80
2022-12-14T07:47:50.833Z,1.92
2022-12-14T07:57:52.276Z,1.92
2022-12-14T08:07:53.710Z,1.77
2022-12-14T08:17:55.197Z,2.13
2022-12-14T08:27:56.678Z,1.90
2022-12-14T08:37:58.397Z,1.70
2022-12-14T08:48:00.697Z,1.88
2022-12-14T08:58:02.133Z,1.92
2022-12-14T09:08:04.058Z,2.05
2022-12-14T09:18:05.532Z,1.75
2022-12-14T09:28:06.950Z,1.85
2022-12-14T09:38:08.390Z,1.52
2022-12-14T09:48:17.870Z,1.88
2022-12-14T09:58:26.751Z,1.70
2022-12-14T10:08:34.589Z,1.50
2022-12-14T10:19:02.591Z,1.58
2022-12-14T10:29:17.621Z,1.77
2022-12-14T10:39:49.609Z,1.80
2022-12-14T10:50:00.571Z,1.60
2022-12-14T11:00:10.341Z,1.63
2022-12-14T11:10:27.282Z,2.00
2022-12-14T11:20:28.778Z,1.67
2022-12-14T11:30:30.493Z,1.67
2022-12-14T11:40:36.486Z,1.33
2022-12-14T11:50:37.930Z,1.65
2022-12-14T12:00:47.390Z,1.67
2022-12-14T12:10:51.347Z,1.60
2022-12-14T12:20:57.687Z,1.50
2022-12-14T12:31:10.374Z,1.38
2022-12-14T12:41:23.945Z,1.48
2022-12-14T12:51:29.492Z,1.40
2022-12-14T13:01:43.802Z,1.58
2022-12-14T13:11:45.841Z,1.33
2022-12-14T13:21:50.491Z,1.20
2022-12-14T13:32:06.671Z,1.50
2022-12-14T13:42:10.027Z,1.50
2022-12-14T13:52:46.660Z,1.27
2022-12-14T14:02:53.458Z,1.27
2022-12-14T14:12:55.254Z,1.58
2022-12-14T14:23:15.846Z,1.70
2022-12-14T14:33:49.849Z,1.40
2022-12-14T14:43:56.699Z,1.70
2022-12-14T14:54:46.182Z,1.50
2022-12-14T15:04:48.975Z,1.52
2022-12-14T15:14:53.792Z,1.58
2022-12-14T15:24:57.516Z,1.50
2022-12-14T15:35:05.047Z,1.50
2022-12-14T15:45:13.837Z,1.63
2022-12-14T15:55:32.099Z,1.50
2022-12-14T16:05:34.444Z,1.45
2022-12-14T16:15:36.113Z,1.63
2022-12-14T16:25:59.550Z,1.50
2022-12-14T16:36:09.545Z,1.55
2022-12-14T16:46:14.167Z,1.58
2022-12-14T16:56:18.524Z,1.70
2022-12-14T17:06:23.410Z,1.40
2022-12-14T17:16:24.944Z,1.40
2022-12-14T17:26:30.672Z,1.55
2022-12-14T17:36:32.114Z,1.45
2022-12-14T17:46:33.737Z,2.03
2022-12-14T17:56:35.201Z,2.50
2022-12-14T18:06:36.784Z,1.80
2022-12-14T18:16:38.363Z,2.00
2022-12-14T18:26:39.907Z,1.85
2022-12-14T18:36:41.390Z,1.73
2022-12-14T18:46:42.890Z,1.98
2022-12-14T18:56:50.729Z,2.05
2022-12-14T19:06:52.192Z,1.90
2022-12-14T19:16:53.671Z,1.60
2022-12-14T19:26:55.118Z,1.92
2022-12-14T19:36:56.631Z,1.65
2022-12-14T19:46:58.300Z,1.70
2022-12-14T19:56:59.842Z,1.50
2022-12-14T20:07:01.321Z,1.80
2022-12-14T20:17:02.814Z,1.85
2022-12-14T20:27:04.321Z,1.50
2022-12-14T20:37:06.522Z,1.90
2022-12-14T20:47:08.175Z,1.67
2022-12-14T20:57:09.738Z,2.00
2022-12-14T21:07:11.191Z,1.67
2022-12-14T21:17:13.798Z,1.80
2022-12-14T21:27:27.360Z,1.73
2022-12-14T21:37:29.013Z,1.77
2022-12-14T21:47:31.585Z,1.77
2022-12-14T21:57:51.550Z,1.90
2022-12-14T22:07:53.002Z,1.85
2022-12-14T22:17:54.416Z,1.40
2022-12-14T22:27:55.900Z,2.13
2022-12-14T22:37:58.886Z,1.50
2022-12-14T22:48:00.284Z,1.73
2022-12-14T22:58:01.841Z,1.67
2022-12-14T23:08:03.380Z,1.83
2022-12-14T23:18:25.099Z,1.73
2022-12-14T23:28:49.763Z,1.60
2022-12-14T23:39:09.976Z,1.60
2022-12-14T23:49:30.168Z,2.00
2022-12-14T23:59:50.050Z,1.60
